sensor_id;sensor_type;location;lat;lon;timestamp;pressure;altitude;pressure_sealevel;temperature;humidity
71384;BME280;67558;52.166;5.004;2023-04-07T00:02:15;101561.94;;;10.68;71.97
71384;BME280;67558;52.166;5.004;2023-04-07T00:04:41;101571.09;;;10.72;71.88
71384;BME280;67558;52.166;5.004;2023-04-07T00:07:06;101566.78;;;10.71;71.84
71384;BME280;67558;52.166;5.004;2023-04-07T00:09:33;101570.03;;;10.73;71.94
71384;BME280;67558;52.166;5.004;2023-04-07T00:11:59;101571.28;;;10.65;71.76
71384;BME280;67558;52.166;5.004;2023-04-07T00:14:27;101569.22;;;10.72;71.88
71384;BME280;67558;52.166;5.004;2023-04-07T00:16:53;101570.72;;;10.63;71.98
71384;BME280;67558;52.166;5.004;2023-04-07T00:19:18;101564.72;;;10.56;72.13
71384;BME280;67558;52.166;5.004;2023-04-07T00:21:43;101578.47;;;10.64;72.05
71384;BME280;67558;52.166;5.004;2023-04-07T00:24:10;101566.59;;;10.55;72.24
71384;BME280;67558;52.166;5.004;2023-04-07T00:26:35;101572.84;;;10.61;72.32
71384;BME280;67558;52.166;5.004;2023-04-07T00:29:01;101580.59;;;10.62;72.22
71384;BME280;67558;52.166;5.004;2023-04-07T00:31:27;101570.91;;;10.56;72.19
71384;BME280;67558;52.166;5.004;2023-04-07T00:33:53;101561.00;;;10.57;72.16
71384;BME280;67558;52.166;5.004;2023-04-07T00:36:19;101566.13;;;10.58;72.29
71384;BME280;67558;52.166;5.004;2023-04-07T00:38:45;101561.25;;;10.55;72.00
71384;BME280;67558;52.166;5.004;2023-04-07T00:41:11;101566.41;;;10.62;72.10
71384;BME280;67558;52.166;5.004;2023-04-07T00:43:37;101563.44;;;10.58;72.36
71384;BME280;67558;52.166;5.004;2023-04-07T00:46:02;101571.53;;;10.63;72.21
71384;BME280;67558;52.166;5.004;2023-04-07T00:48:28;101575.50;;;10.61;72.23
71384;BME280;67558;52.166;5.004;2023-04-07T00:50:55;101569.81;;;10.57;72.35
71384;BME280;67558;52.166;5.004;2023-04-07T00:53:21;101566.03;;;10.53;72.22
71384;BME280;67558;52.166;5.004;2023-04-07T00:55:47;101573.31;;;10.58;71.92
71384;BME280;67558;52.166;5.004;2023-04-07T00:58:13;101574.13;;;10.58;72.08
71384;BME280;67558;52.166;5.004;2023-04-07T01:01:03;101574.13;;;10.58;72.23
71384;BME280;67558;52.166;5.004;2023-04-07T01:03:36;101569.25;;;10.55;72.04
71384;BME280;67558;52.166;5.004;2023-04-07T01:06:05;101577.38;;;10.60;72.13
71384;BME280;67558;52.166;5.004;2023-04-07T01:08:38;101578.91;;;10.56;72.26
71384;BME280;67558;52.166;5.004;2023-04-07T01:13:56;101591.28;;;10.62;71.92
71384;BME280;67558;52.166;5.004;2023-04-07T01:16:41;101583.78;;;10.59;71.96
71384;BME280;67558;52.166;5.004;2023-04-07T01:19:42;101584.56;;;10.60;72.22
71384;BME280;67558;52.166;5.004;2023-04-07T01:22:15;101581.34;;;10.58;71.90
71384;BME280;67558;52.166;5.004;2023-04-07T01:30:10;101579.50;;;10.58;71.90
71384;BME280;67558;52.166;5.004;2023-04-07T01:32:39;101582.97;;;10.59;71.84
71384;BME280;67558;52.166;5.004;2023-04-07T01:35:09;101575.91;;;10.53;71.93
71384;BME280;67558;52.166;5.004;2023-04-07T01:37:37;101581.66;;;10.61;71.93
71384;BME280;67558;52.166;5.004;2023-04-07T01:40:07;101584.91;;;10.63;71.82
71384;BME280;67558;52.166;5.004;2023-04-07T01:42:33;101583.81;;;10.64;71.96
71384;BME280;67558;52.166;5.004;2023-04-07T01:45:01;101587.56;;;10.63;71.80
71384;BME280;67558;52.166;5.004;2023-04-07T01:47:28;101585.41;;;10.60;71.87
71384;BME280;67558;52.166;5.004;2023-04-07T01:49:57;101594.81;;;10.63;72.16
71384;BME280;67558;52.166;5.004;2023-04-07T01:52:26;101591.06;;;10.64;72.07
71384;BME280;67558;52.166;5.004;2023-04-07T01:54:53;101585.47;;;10.65;71.96
71384;BME280;67558;52.166;5.004;2023-04-07T01:57:20;101582.84;;;10.71;71.86
71384;BME280;67558;52.166;5.004;2023-04-07T01:59:46;101591.44;;;10.73;71.50
71384;BME280;67558;52.166;5.004;2023-04-07T02:02:11;101572.66;;;10.68;71.43
71384;BME280;67558;52.166;5.004;2023-04-07T02:07:21;101601.09;;;10.74;71.35
71384;BME280;67558;52.166;5.004;2023-04-07T02:09:50;101506.09;;;10.15;71.16
71384;BME280;67558;52.166;5.004;2023-04-07T02:12:18;101587.06;;;10.66;71.08
71384;BME280;67558;52.166;5.004;2023-04-07T02:14:45;101594.13;;;10.73;71.13
71384;BME280;67558;52.166;5.004;2023-04-07T02:17:13;101595.59;;;10.63;71.50
71384;BME280;67558;52.166;5.004;2023-04-07T02:19:41;101600.97;;;10.63;71.39
71384;BME280;67558;52.166;5.004;2023-04-07T02:22:11;101590.19;;;10.58;71.66
71384;BME280;67558;52.166;5.004;2023-04-07T02:24:41;101589.13;;;10.59;71.61
71384;BME280;67558;52.166;5.004;2023-04-07T02:27:07;101593.50;;;10.65;71.27
71384;BME280;67558;52.166;5.004;2023-04-07T02:29:33;101581.66;;;10.61;71.51
71384;BME280;67558;52.166;5.004;2023-04-07T02:31:59;101589.19;;;10.64;71.42
71384;BME280;67558;52.166;5.004;2023-04-07T02:34:25;101583.53;;;10.61;71.43
71384;BME280;67558;52.166;5.004;2023-04-07T02:36:50;101589.44;;;10.63;71.58
71384;BME280;67558;52.166;5.004;2023-04-07T02:39:16;101587.81;;;10.62;71.54
71384;BME280;67558;52.166;5.004;2023-04-07T02:41:42;101584.09;;;10.63;71.65
71384;BME280;67558;52.166;5.004;2023-04-07T02:44:08;101585.13;;;10.62;71.67
71384;BME280;67558;52.166;5.004;2023-04-07T02:46:33;101580.84;;;10.61;71.65
71384;BME280;67558;52.166;5.004;2023-04-07T02:48:59;101584.91;;;10.63;71.58
71384;BME280;67558;52.166;5.004;2023-04-07T02:51:25;101593.16;;;10.62;71.74
71384;BME280;67558;52.166;5.004;2023-04-07T02:53:51;101593.44;;;10.60;71.69
71384;BME280;67558;52.166;5.004;2023-04-07T02:56:18;101591.56;;;10.61;71.65
71384;BME280;67558;52.166;5.004;2023-04-07T02:58:46;101601.75;;;10.64;71.77
71384;BME280;67558;52.166;5.004;2023-04-07T03:01:12;101584.00;;;10.58;71.58
71384;BME280;67558;52.166;5.004;2023-04-07T03:03:38;101593.16;;;10.62;71.57
71384;BME280;67558;52.166;5.004;2023-04-07T03:06:04;101599.81;;;10.59;71.67
71384;BME280;67558;52.166;5.004;2023-04-07T03:08:32;101590.25;;;10.63;71.59
71384;BME280;67558;52.166;5.004;2023-04-07T03:10:58;101588.09;;;10.60;71.69
71384;BME280;67558;52.166;5.004;2023-04-07T03:13:24;101587.50;;;10.58;71.81
71384;BME280;67558;52.166;5.004;2023-04-07T03:15:49;101597.72;;;10.61;71.52
71384;BME280;67558;52.166;5.004;2023-04-07T03:18:15;101582.06;;;10.53;71.72
71384;BME280;67558;52.166;5.004;2023-04-07T03:20:42;101592.03;;;10.58;71.69
71384;BME280;67558;52.166;5.004;2023-04-07T03:23:09;101582.41;;;10.57;71.46
71384;BME280;67558;52.166;5.004;2023-04-07T03:25:35;101598.03;;;10.65;71.62
71384;BME280;67558;52.166;5.004;2023-04-07T03:28:02;101598.84;;;10.65;71.79
71384;BME280;67558;52.166;5.004;2023-04-07T03:30:27;101597.22;;;10.64;71.89
71384;BME280;67558;52.166;5.004;2023-04-07T03:32:53;101579.16;;;10.55;71.70
71384;BME280;67558;52.166;5.004;2023-04-07T03:35:18;101590.25;;;10.63;71.64
71384;BME280;67558;52.166;5.004;2023-04-07T03:37:44;101593.16;;;10.62;71.67
71384;BME280;67558;52.166;5.004;2023-04-07T03:40:10;101582.97;;;10.59;71.78
71384;BME280;67558;52.166;5.004;2023-04-07T03:42:36;101590.75;;;10.60;71.42
71384;BME280;67558;52.166;5.004;2023-04-07T03:45:02;101588.88;;;10.61;71.44
71384;BME280;67558;52.166;5.004;2023-04-07T03:47:28;101596.63;;;10.62;71.46
71384;BME280;67558;52.166;5.004;2023-04-07T03:49:54;101589.94;;;10.60;71.38
71384;BME280;67558;52.166;5.004;2023-04-07T03:52:20;101580.19;;;10.54;71.44
71384;BME280;67558;52.166;5.004;2023-04-07T03:54:46;101588.38;;;10.64;71.44
71384;BME280;67558;52.166;5.004;2023-04-07T03:57:12;101599.31;;;10.62;71.45
71384;BME280;67558;52.166;5.004;2023-04-07T03:59:38;101599.09;;;10.64;71.53
71384;BME280;67558;52.166;5.004;2023-04-07T04:02:03;101606.72;;;10.55;71.70
71384;BME280;67558;52.166;5.004;2023-04-07T04:04:29;101612.41;;;10.59;71.62
71384;BME280;67558;52.166;5.004;2023-04-07T04:06:54;101609.91;;;10.52;71.40
71384;BME280;67558;52.166;5.004;2023-04-07T04:09:21;101614.28;;;10.58;71.56
71384;BME280;67558;52.166;5.004;2023-04-07T04:11:47;101620.72;;;10.62;71.46
71384;BME280;67558;52.166;5.004;2023-04-07T04:14:13;101620.41;;;10.59;71.20
71384;BME280;67558;52.166;5.004;2023-04-07T04:16:38;101619.84;;;10.57;71.43
71384;BME280;67558;52.166;5.004;2023-04-07T04:19:04;101614.75;;;10.55;71.25
71384;BME280;67558;52.166;5.004;2023-04-07T04:21:30;101573.75;;;10.33;71.16
71384;BME280;67558;52.166;5.004;2023-04-07T04:23:57;101629.81;;;10.61;71.32
71384;BME280;67558;52.166;5.004;2023-04-07T04:26:23;101626.63;;;10.64;71.11
71384;BME280;67558;52.166;5.004;2023-04-07T04:28:51;101630.38;;;10.63;71.11
71384;BME280;67558;52.166;5.004;2023-04-07T04:31:18;101624.47;;;10.61;71.35
71384;BME280;67558;52.166;5.004;2023-04-07T04:33:43;101622.88;;;10.60;71.33
71384;BME280;67558;52.166;5.004;2023-04-07T04:36:09;101634.94;;;10.63;71.18
71384;BME280;67558;52.166;5.004;2023-04-07T04:38:36;101629.81;;;10.61;71.24
71384;BME280;67558;52.166;5.004;2023-04-07T04:41:02;101617.91;;;10.52;71.20
71384;BME280;67558;52.166;5.004;2023-04-07T04:43:28;101629.25;;;10.59;71.03
71384;BME280;67558;52.166;5.004;2023-04-07T04:45:53;101633.56;;;10.60;71.05
71384;BME280;67558;52.166;5.004;2023-04-07T04:48:19;101642.63;;;10.59;71.08
71384;BME280;67558;52.166;5.004;2023-04-07T04:50:45;101634.84;;;10.58;70.99
71384;BME280;67558;52.166;5.004;2023-04-07T04:53:11;101641.03;;;10.58;71.07
71384;BME280;67558;52.166;5.004;2023-04-07T04:55:37;101641.72;;;10.54;70.98
71384;BME280;67558;52.166;5.004;2023-04-07T04:58:05;101644.50;;;10.59;70.79
71384;BME280;67558;52.166;5.004;2023-04-07T05:00:31;101636.56;;;10.47;70.79
71384;BME280;67558;52.166;5.004;2023-04-07T05:02:57;101650.88;;;10.58;70.82
71384;BME280;67558;52.166;5.004;2023-04-07T05:05:24;101641.72;;;10.54;70.98
71384;BME280;67558;52.166;5.004;2023-04-07T05:07:50;101661.34;;;10.59;70.75
71384;BME280;67558;52.166;5.004;2023-04-07T05:10:17;101657.06;;;10.58;70.67
71384;BME280;67558;52.166;5.004;2023-04-07T05:12:43;101651.84;;;10.52;70.35
71384;BME280;67558;52.166;5.004;2023-04-07T05:15:09;101647.66;;;10.56;70.42
71384;BME280;67558;52.166;5.004;2023-04-07T05:17:36;101643.78;;;10.47;70.45
71384;BME280;67558;52.166;5.004;2023-04-07T05:20:03;101649.75;;;10.54;70.35
71384;BME280;67558;52.166;5.004;2023-04-07T05:22:28;101654.31;;;10.53;70.32
71384;BME280;67558;52.166;5.004;2023-04-07T05:24:54;101655.94;;;10.54;70.33
71384;BME280;67558;52.166;5.004;2023-04-07T05:27:20;101650.50;;;10.49;70.19
71384;BME280;67558;52.166;5.004;2023-04-07T05:29:46;101661.28;;;10.54;70.03
71384;BME280;67558;52.166;5.004;2023-04-07T05:32:13;101654.81;;;10.50;70.16
71384;BME280;67558;52.166;5.004;2023-04-07T05:34:38;101651.56;;;10.48;70.21
71384;BME280;67558;52.166;5.004;2023-04-07T05:37:06;101663.28;;;10.47;70.24
71384;BME280;67558;52.166;5.004;2023-04-07T05:39:32;101661.47;;;10.48;70.21
71384;BME280;67558;52.166;5.004;2023-04-07T05:41:58;101667.44;;;10.55;70.28
71384;BME280;67558;52.166;5.004;2023-04-07T05:44:25;101669.06;;;10.56;70.48
71384;BME280;67558;52.166;5.004;2023-04-07T05:46:53;101667.22;;;10.56;70.51
71384;BME280;67558;52.166;5.004;2023-04-07T05:49:19;101671.03;;;10.60;70.51
71384;BME280;67558;52.166;5.004;2023-04-07T05:51:44;101671.03;;;10.60;70.35
71384;BME280;67558;52.166;5.004;2023-04-07T05:54:10;101669.38;;;10.59;70.21
71384;BME280;67558;52.166;5.004;2023-04-07T05:56:37;101668.25;;;10.55;70.44
71384;BME280;67558;52.166;5.004;2023-04-07T05:59:03;101683.66;;;10.65;70.35
71384;BME280;67558;52.166;5.004;2023-04-07T06:01:28;101681.00;;;10.65;70.20
71384;BME280;67558;52.166;5.004;2023-04-07T06:03:54;101682.59;;;10.66;69.97
71384;BME280;67558;52.166;5.004;2023-04-07T06:06:20;101688.19;;;10.64;70.09
71384;BME280;67558;52.166;5.004;2023-04-07T06:08:45;101693.06;;;10.68;69.80
71384;BME280;67558;52.166;5.004;2023-04-07T06:11:12;101685.78;;;10.63;69.67
71384;BME280;67558;52.166;5.004;2023-04-07T06:13:38;101695.50;;;10.69;69.58
71384;BME280;67558;52.166;5.004;2023-04-07T06:16:04;101687.38;;;10.64;69.45
71384;BME280;67558;52.166;5.004;2023-04-07T06:18:30;101681.22;;;10.63;69.47
71384;BME280;67558;52.166;5.004;2023-04-07T06:20:57;101685.28;;;10.66;69.73
71384;BME280;67558;52.166;5.004;2023-04-07T06:23:23;101698.25;;;10.74;69.72
71384;BME280;67558;52.166;5.004;2023-04-07T06:25:49;101699.03;;;10.75;69.52
71384;BME280;67558;52.166;5.004;2023-04-07T06:28:18;101704.41;;;10.75;69.82
71384;BME280;67558;52.166;5.004;2023-04-07T06:30:44;101703.09;;;10.77;69.52
71384;BME280;67558;52.166;5.004;2023-04-07T06:33:11;101701.81;;;10.80;69.52
71384;BME280;67558;52.166;5.004;2023-04-07T06:35:38;101710.41;;;10.82;69.70
71384;BME280;67558;52.166;5.004;2023-04-07T06:38:04;101705.06;;;10.82;69.94
71384;BME280;67558;52.166;5.004;2023-04-07T06:40:30;101711.78;;;10.84;69.91
71384;BME280;67558;52.166;5.004;2023-04-07T06:42:56;101710.72;;;10.85;69.84
71384;BME280;67558;52.166;5.004;2023-04-07T06:45:22;101712.91;;;10.89;69.84
71384;BME280;67558;52.166;5.004;2023-04-07T06:47:48;101707.81;;;10.87;69.82
71384;BME280;67558;52.166;5.004;2023-04-07T06:50:13;101711.63;;;10.91;70.28
71384;BME280;67558;52.166;5.004;2023-04-07T06:52:41;101719.72;;;10.96;69.96
71384;BME280;67558;52.166;5.004;2023-04-07T06:55:07;101710.88;;;10.96;69.97
71384;BME280;67558;52.166;5.004;2023-04-07T06:57:33;101711.06;;;10.89;70.09
71384;BME280;67558;52.166;5.004;2023-04-07T06:59:59;101721.34;;;10.97;70.09
71384;BME280;67558;52.166;5.004;2023-04-07T07:02:25;101728.88;;;11.00;69.80
71384;BME280;67558;52.166;5.004;2023-04-07T07:04:50;101719.16;;;10.94;69.78
71384;BME280;67558;52.166;5.004;2023-04-07T07:07:15;101737.81;;;11.06;69.95
71384;BME280;67558;52.166;5.004;2023-04-07T07:09:42;101733.25;;;11.06;69.87
71384;BME280;67558;52.166;5.004;2023-04-07T07:12:07;101728.41;;;11.03;69.73
71384;BME280;67558;52.166;5.004;2023-04-07T07:14:34;101745.66;;;11.13;69.76
71384;BME280;67558;52.166;5.004;2023-04-07T07:17:00;101744.03;;;11.12;69.40
71384;BME280;67558;52.166;5.004;2023-04-07T07:19:26;101740.31;;;11.13;69.43
71384;BME280;67558;52.166;5.004;2023-04-07T07:21:52;101750.44;;;11.11;69.51
71384;BME280;67558;52.166;5.004;2023-04-07T07:24:18;101758.47;;;11.11;69.56
71384;BME280;67558;52.166;5.004;2023-04-07T07:26:44;101743.72;;;11.08;69.59
71384;BME280;67558;52.166;5.004;2023-04-07T07:29:10;101757.13;;;11.08;69.48
71384;BME280;67558;52.166;5.004;2023-04-07T07:31:35;101743.91;;;11.01;70.06
71384;BME280;67558;52.166;5.004;2023-04-07T07:34:01;101760.59;;;11.09;69.62
71384;BME280;67558;52.166;5.004;2023-04-07T07:36:26;101761.16;;;11.11;69.98
71384;BME280;67558;52.166;5.004;2023-04-07T07:38:52;101763.34;;;11.14;69.59
71384;BME280;67558;52.166;5.004;2023-04-07T07:41:17;101769.25;;;11.16;69.24
71384;BME280;67558;52.166;5.004;2023-04-07T07:43:44;101767.94;;;11.18;69.56
71384;BME280;67558;52.166;5.004;2023-04-07T07:46:10;101760.66;;;11.14;68.99
71384;BME280;67558;52.166;5.004;2023-04-07T07:48:35;101776.81;;;11.19;68.73
71384;BME280;67558;52.166;5.004;2023-04-07T07:51:02;101779.50;;;11.19;68.92
71384;BME280;67558;52.166;5.004;2023-04-07T07:53:28;101778.44;;;11.20;68.55
71384;BME280;67558;52.166;5.004;2023-04-07T07:55:54;101729.22;;;10.87;68.42
71384;BME280;67558;52.166;5.004;2023-04-07T07:58:22;101778.19;;;11.21;68.42
71384;BME280;67558;52.166;5.004;2023-04-07T08:00:48;101777.69;;;11.24;68.24
71384;BME280;67558;52.166;5.004;2023-04-07T08:03:15;101786.84;;;11.28;67.87
71384;BME280;67558;52.166;5.004;2023-04-07T08:05:41;101785.31;;;11.33;67.77
71384;BME280;67558;52.166;5.004;2023-04-07T08:08:07;101795.84;;;11.39;67.56
71384;BME280;67558;52.166;5.004;2023-04-07T08:10:34;101795.66;;;11.46;67.56
71384;BME280;67558;52.166;5.004;2023-04-07T08:13:00;101782.78;;;11.43;67.39
71384;BME280;67558;52.166;5.004;2023-04-07T08:15:26;101797.69;;;11.56;66.94
71384;BME280;67558;52.166;5.004;2023-04-07T08:17:52;101797.19;;;11.59;66.95
71384;BME280;67558;52.166;5.004;2023-04-07T08:20:18;101802.63;;;11.64;66.67
71384;BME280;67558;52.166;5.004;2023-04-07T08:22:44;101808.28;;;11.67;66.56
71384;BME280;67558;52.166;5.004;2023-04-07T08:25:10;101802.19;;;11.72;66.35
71384;BME280;67558;52.166;5.004;2023-04-07T08:27:35;101808.38;;;11.73;66.04
71384;BME280;67558;52.166;5.004;2023-04-07T08:30:05;101796.75;;;11.67;66.01
71384;BME280;67558;52.166;5.004;2023-04-07T08:32:44;101813.47;;;11.74;65.48
71384;BME280;67558;52.166;5.004;2023-04-07T08:35:10;101817.78;;;11.75;65.60
71384;BME280;67558;52.166;5.004;2023-04-07T08:37:38;101822.91;;;11.77;65.44
71384;BME280;67558;52.166;5.004;2023-04-07T08:40:04;101813.53;;;11.79;65.49
71384;BME280;67558;52.166;5.004;2023-04-07T08:42:32;101818.91;;;11.79;65.52
71384;BME280;67558;52.166;5.004;2023-04-07T08:45:05;101821.66;;;11.84;65.27
71384;BME280;67558;52.166;5.004;2023-04-07T08:47:33;101807.44;;;11.84;65.19
71384;BME280;67558;52.166;5.004;2023-04-07T08:50:00;101808.59;;;11.88;65.13
71384;BME280;67558;52.166;5.004;2023-04-07T08:52:39;101818.38;;;11.99;65.03
71384;BME280;67558;52.166;5.004;2023-04-07T08:55:07;101818.69;;;12.03;65.24
71384;BME280;67558;52.166;5.004;2023-04-07T08:57:33;101822.00;;;12.10;65.21
71384;BME280;67558;52.166;5.004;2023-04-07T09:00:01;101824.19;;;12.13;65.07
71384;BME280;67558;52.166;5.004;2023-04-07T09:02:37;101820.66;;;12.13;64.74
71384;BME280;67558;52.166;5.004;2023-04-07T09:05:05;101825.28;;;12.17;64.38
71384;BME280;67558;52.166;5.004;2023-04-07T09:07:35;101820.38;;;12.09;64.14
71384;BME280;67558;52.166;5.004;2023-04-07T09:10:04;101826.59;;;12.15;64.03
71384;BME280;67558;52.166;5.004;2023-04-07T09:12:31;101836.75;;;12.13;64.10
71384;BME280;67558;52.166;5.004;2023-04-07T09:14:57;101834.03;;;12.07;64.14
71384;BME280;67558;52.166;5.004;2023-04-07T09:17:27;101832.09;;;12.03;64.09
71384;BME280;67558;52.166;5.004;2023-04-07T09:19:58;101839.63;;;12.06;64.26
71384;BME280;67558;52.166;5.004;2023-04-07T09:22:38;101829.66;;;12.01;63.71
71384;BME280;67558;52.166;5.004;2023-04-07T09:27:40;101846.44;;;12.14;63.74
71384;BME280;67558;52.166;5.004;2023-04-07T09:30:18;101841.84;;;12.09;63.66
71384;BME280;67558;52.166;5.004;2023-04-07T09:32:46;101838.88;;;12.11;63.59
71384;BME280;67558;52.166;5.004;2023-04-07T09:35:12;101845.66;;;12.13;63.73
71384;BME280;67558;52.166;5.004;2023-04-07T09:37:38;101843.50;;;12.15;63.93
71384;BME280;67558;52.166;5.004;2023-04-07T09:40:04;101849.31;;;12.07;64.51
71384;BME280;67558;52.166;5.004;2023-04-07T09:42:31;101849.06;;;12.08;64.13
71384;BME280;67558;52.166;5.004;2023-04-07T09:45:00;101848.56;;;12.12;64.09
71384;BME280;67558;52.166;5.004;2023-04-07T09:47:29;101845.81;;;12.06;63.82
71384;BME280;67558;52.166;5.004;2023-04-07T09:49:57;101847.69;;;12.06;63.91
71384;BME280;67558;52.166;5.004;2023-04-07T09:52:50;101847.69;;;12.06;63.80
71384;BME280;67558;52.166;5.004;2023-04-07T09:55:21;101845.56;;;12.08;63.67
71384;BME280;67558;52.166;5.004;2023-04-07T09:57:50;101851.25;;;12.12;63.55
71384;BME280;67558;52.166;5.004;2023-04-07T10:00:15;101847.81;;;12.16;63.86
71384;BME280;67558;52.166;5.004;2023-04-07T10:02:42;101826.19;;;12.01;63.75
71384;BME280;67558;52.166;5.004;2023-04-07T10:05:09;101855.63;;;12.18;63.73
71384;BME280;67558;52.166;5.004;2023-04-07T10:07:34;101856.41;;;12.18;63.55
71384;BME280;67558;52.166;5.004;2023-04-07T10:10:06;101865.03;;;12.20;63.66
71384;BME280;67558;52.166;5.004;2023-04-07T10:12:34;101859.34;;;12.17;63.41
71384;BME280;67558;52.166;5.004;2023-04-07T10:15:01;101865.84;;;12.21;63.70
71384;BME280;67558;52.166;5.004;2023-04-07T10:17:27;101868.28;;;12.22;63.43
71384;BME280;67558;52.166;5.004;2023-04-07T10:19:56;101860.97;;;12.18;63.68
71384;BME280;67558;52.166;5.004;2023-04-07T10:22:24;101866.03;;;12.14;63.31
71384;BME280;67558;52.166;5.004;2023-04-07T10:24:59;101869.22;;;12.11;63.35
71384;BME280;67558;52.166;5.004;2023-04-07T10:27:35;101859.97;;;12.02;63.54
71384;BME280;67558;52.166;5.004;2023-04-07T10:30:02;101868.66;;;12.09;63.53
71384;BME280;67558;52.166;5.004;2023-04-07T10:32:30;101878.38;;;12.15;63.81
71384;BME280;67558;52.166;5.004;2023-04-07T10:34:58;101882.69;;;12.16;63.34
71384;BME280;67558;52.166;5.004;2023-04-07T10:37:26;101882.91;;;12.15;63.50
71384;BME280;67558;52.166;5.004;2023-04-07T10:42:46;101889.72;;;12.22;63.35
71384;BME280;67558;52.166;5.004;2023-04-07T10:45:12;101876.88;;;12.24;63.50
71384;BME280;67558;52.166;5.004;2023-04-07T10:50:24;101881.66;;;12.44;63.50
71384;BME280;67558;52.166;5.004;2023-04-07T10:53:12;101883.09;;;12.52;62.89
71384;BME280;67558;52.166;5.004;2023-04-07T10:55:42;101889.13;;;12.64;63.03
71384;BME280;67558;52.166;5.004;2023-04-07T10:58:29;101884.41;;;12.77;62.81
71384;BME280;67558;52.166;5.004;2023-04-07T11:03:57;101884.34;;;12.99;62.49
71384;BME280;67558;52.166;5.004;2023-04-07T11:06:23;101887.59;;;13.01;62.18
71384;BME280;67558;52.166;5.004;2023-04-07T11:08:51;101889.47;;;13.00;62.45
71384;BME280;67558;52.166;5.004;2023-04-07T11:11:39;101892.63;;;12.92;62.02
71384;BME280;67558;52.166;5.004;2023-04-07T11:14:06;101882.66;;;12.87;61.86
71384;BME280;67558;52.166;5.004;2023-04-07T11:16:37;101892.34;;;12.88;62.01
71384;BME280;67558;52.166;5.004;2023-04-07T11:19:03;101894.47;;;12.86;61.80
71384;BME280;67558;52.166;5.004;2023-04-07T11:21:29;101898.50;;;12.89;61.96
71384;BME280;67558;52.166;5.004;2023-04-07T11:23:54;101911.13;;;12.88;61.90
71384;BME280;67558;52.166;5.004;2023-04-07T11:26:20;101899.63;;;12.93;61.93
71384;BME280;67558;52.166;5.004;2023-04-07T11:28:47;101904.22;;;12.98;61.59
71384;BME280;67558;52.166;5.004;2023-04-07T11:31:31;101905.06;;;13.03;61.79
71384;BME280;67558;52.166;5.004;2023-04-07T11:34:03;101895.75;;;13.11;61.87
71384;BME280;67558;52.166;5.004;2023-04-07T11:36:40;101901.72;;;13.18;61.77
71384;BME280;67558;52.166;5.004;2023-04-07T11:39:18;101902.81;;;13.22;61.34
71384;BME280;67558;52.166;5.004;2023-04-07T11:41:46;101904.72;;;13.22;61.20
71384;BME280;67558;52.166;5.004;2023-04-07T11:44:15;101911.72;;;13.23;60.77
71384;BME280;67558;52.166;5.004;2023-04-07T11:46:59;101906.84;;;13.20;61.02
71384;BME280;67558;52.166;5.004;2023-04-07T11:49:26;101914.13;;;13.24;60.52
71384;BME280;67558;52.166;5.004;2023-04-07T11:52:04;101912.59;;;13.28;60.62
71384;BME280;67558;52.166;5.004;2023-04-07T11:54:44;101915.59;;;13.37;60.37
71384;BME280;67558;52.166;5.004;2023-04-07T11:57:27;101917.78;;;13.40;59.48
71384;BME280;67558;52.166;5.004;2023-04-07T12:00:11;101914.03;;;13.41;59.89
71384;BME280;67558;52.166;5.004;2023-04-07T12:02:37;101909.72;;;13.40;59.83
71384;BME280;67558;52.166;5.004;2023-04-07T12:05:03;101912.19;;;13.47;59.91
71384;BME280;67558;52.166;5.004;2023-04-07T12:07:29;101919.16;;;13.43;59.83
71384;BME280;67558;52.166;5.004;2023-04-07T12:09:54;101913.53;;;13.44;60.03
71384;BME280;67558;52.166;5.004;2023-04-07T12:12:26;101918.91;;;13.44;60.17
71384;BME280;67558;52.166;5.004;2023-04-07T12:14:54;101930.19;;;13.46;60.15
71384;BME280;67558;52.166;5.004;2023-04-07T12:17:22;101931.22;;;13.40;60.00
71384;BME280;67558;52.166;5.004;2023-04-07T12:19:48;101928.69;;;13.28;60.25
71384;BME280;67558;52.166;5.004;2023-04-07T12:22:14;101938.31;;;13.24;60.45
71384;BME280;67558;52.166;5.004;2023-04-07T12:24:41;101939.06;;;13.20;60.58
71384;BME280;67558;52.166;5.004;2023-04-07T12:27:08;101942.84;;;13.19;60.69
71384;BME280;67558;52.166;5.004;2023-04-07T12:29:34;101942.78;;;13.14;60.55
71384;BME280;67558;52.166;5.004;2023-04-07T12:32:01;101937.38;;;13.08;60.61
71384;BME280;67558;52.166;5.004;2023-04-07T12:34:27;101948.13;;;13.08;60.85
71384;BME280;67558;52.166;5.004;2023-04-07T12:36:54;101945.91;;;13.05;61.00
71384;BME280;67558;52.166;5.004;2023-04-07T12:39:20;101949.44;;;13.06;61.10
71384;BME280;67558;52.166;5.004;2023-04-07T12:41:46;101953.97;;;13.05;61.31
71384;BME280;67558;52.166;5.004;2023-04-07T12:44:14;101957.19;;;13.02;61.17
71384;BME280;67558;52.166;5.004;2023-04-07T12:46:39;101954.63;;;12.90;60.90
71384;BME280;67558;52.166;5.004;2023-04-07T12:49:05;101963.25;;;12.93;61.06
71384;BME280;67558;52.166;5.004;2023-04-07T12:51:31;101963.44;;;12.86;61.49
71384;BME280;67558;52.166;5.004;2023-04-07T12:53:58;101953.44;;;12.76;61.32
71384;BME280;67558;52.166;5.004;2023-04-07T12:56:25;101966.28;;;12.74;61.31
71384;BME280;67558;52.166;5.004;2023-04-07T12:58:53;101962.47;;;12.70;61.50
71384;BME280;67558;52.166;5.004;2023-04-07T13:01:19;101974.47;;;12.62;61.73
71384;BME280;67558;52.166;5.004;2023-04-07T13:03:45;101975.22;;;12.58;61.75
71384;BME280;67558;52.166;5.004;2023-04-07T13:06:11;101975.22;;;12.58;62.05
71384;BME280;67558;52.166;5.004;2023-04-07T13:08:37;101973.84;;;12.55;62.04
71384;BME280;67558;52.166;5.004;2023-04-07T13:11:03;101964.63;;;12.46;62.38
71384;BME280;67558;52.166;5.004;2023-04-07T13:13:30;101987.25;;;12.55;62.54
71384;BME280;67558;52.166;5.004;2023-04-07T13:15:56;101984.59;;;12.55;62.35